Time;durP1;ratioP1;P1;durP2;ratioP2;P2;SDS_P1;SDS_P2;PMS_P1;PMS_P2;Temp;Humidity;BMP_temperature;BMP_pressure;BME280_temperature;BME280_humidity;BME280_pressure;Samples;Min_cycle;Max_cycle;Signal;HPM_P1;HPM_P2
2021/06/22 00:00:21;;;;;;;7.15;2.10;;;17.00;93.40;;;;;;5011156;28;20088;-83
2021/06/22 00:02:47;;;;;;;7.90;2.28;;;17.00;93.40;;;;;;5011964;28;20030;-83
2021/06/22 00:05:15;;;;;;;4.80;2.30;;;17.00;93.20;;;;;;5012245;28;20439;-83
2021/06/22 00:07:41;;;;;;;7.88;2.58;;;17.00;93.40;;;;;;5012289;28;20021;-84
2021/06/22 00:10:07;;;;;;;5.90;2.13;;;17.00;92.80;;;;;;5014128;28;20565;-84
2021/06/22 00:12:33;;;;;;;7.40;2.47;;;17.00;92.70;;;;;;5016802;28;20061;-83
2021/06/22 00:14:59;;;;;;;4.97;2.45;;;17.00;92.20;;;;;;5016632;28;20053;-84
2021/06/22 00:17:24;;;;;;;5.40;2.72;;;17.00;92.50;;;;;;5016668;28;20028;-82
2021/06/22 00:19:50;;;;;;;6.15;3.00;;;17.00;92.10;;;;;;5016177;28;20053;-82
2021/06/22 00:22:16;;;;;;;7.07;3.75;;;17.00;92.10;;;;;;5016979;28;20030;-82
2021/06/22 00:24:42;;;;;;;5.97;3.53;;;16.90;92.00;;;;;;5016591;28;20030;-83
2021/06/22 00:27:07;;;;;;;5.45;3.28;;;17.00;92.10;;;;;;5016334;28;20029;-83
2021/06/22 00:29:33;;;;;;;6.53;3.15;;;17.00;92.10;;;;;;5014718;28;20486;-83
2021/06/22 00:31:59;;;;;;;5.60;3.00;;;17.00;92.20;;;;;;5015007;28;20076;-82
2021/06/22 00:34:24;;;;;;;5.53;3.00;;;17.00;92.10;;;;;;5015416;28;20431;-82
2021/06/22 00:36:50;;;;;;;6.15;2.58;;;17.00;92.10;;;;;;5016405;28;20033;-82
2021/06/22 00:39:16;;;;;;;4.43;2.25;;;17.00;92.00;;;;;;5015014;28;20116;-84
2021/06/22 00:41:41;;;;;;;7.15;2.38;;;16.90;91.80;;;;;;5014022;28;20068;-83
2021/06/22 00:44:09;;;;;;;6.05;2.58;;;16.90;91.90;;;;;;5014207;28;20030;-84
2021/06/22 00:46:35;;;;;;;6.03;1.70;;;16.90;91.90;;;;;;5015884;28;20032;-84
2021/06/22 00:49:02;;;;;;;9.63;2.50;;;16.90;91.80;;;;;;5013550;28;20486;-84
2021/06/22 00:51:27;;;;;;;8.23;2.50;;;16.90;91.90;;;;;;5013965;28;20058;-84
2021/06/22 00:53:55;;;;;;;7.07;2.47;;;16.80;91.80;;;;;;5014316;28;20022;-84
2021/06/22 00:56:22;;;;;;;6.13;2.30;;;16.80;91.70;;;;;;5013731;28;20028;-83
2021/06/22 00:58:48;;;;;;;6.55;2.58;;;16.70;91.90;;;;;;5013712;28;20483;-83
2021/06/22 01:01:13;;;;;;;8.20;2.85;;;16.60;92.10;;;;;;5014815;28;20120;-84
2021/06/22 01:03:39;;;;;;;6.50;2.47;;;16.60;92.20;;;;;;5014048;28;20021;-83
2021/06/22 01:06:05;;;;;;;8.38;2.30;;;16.50;92.50;;;;;;5014838;28;20022;-84
2021/06/22 01:08:33;;;;;;;8.02;2.58;;;16.50;92.90;;;;;;5015200;28;20022;-84
2021/06/22 01:10:59;;;;;;;5.40;2.22;;;16.40;92.40;;;;;;5012797;28;20025;-83
2021/06/22 01:13:24;;;;;;;8.05;3.10;;;16.40;92.60;;;;;;5014990;28;20026;-84
2021/06/22 01:15:50;;;;;;;7.13;2.55;;;16.40;92.70;;;;;;5013540;28;20030;-84
2021/06/22 01:18:17;;;;;;;6.90;2.63;;;16.30;92.80;;;;;;5014977;28;20036;-84
2021/06/22 01:20:43;;;;;;;9.00;2.60;;;16.40;93.00;;;;;;5014634;28;20034;-84
2021/06/22 01:23:08;;;;;;;9.60;2.92;;;16.30;93.00;;;;;;5013323;28;20091;-83
2021/06/22 01:25:35;;;;;;;7.80;2.70;;;16.30;92.90;;;;;;5014747;28;20510;-84
2021/06/22 01:28:01;;;;;;;10.57;3.25;;;16.40;92.90;;;;;;5013138;28;20022;-84
2021/06/22 01:30:29;;;;;;;8.15;3.20;;;16.40;93.00;;;;;;5012784;28;20026;-83
2021/06/22 01:32:55;;;;;;;13.82;3.35;;;16.40;92.90;;;;;;5012984;28;20029;-84
2021/06/22 01:35:22;;;;;;;8.70;2.72;;;16.30;92.90;;;;;;5014512;28;20030;-83
2021/06/22 01:37:57;;;;;;;6.85;2.65;;;16.30;93.00;;;;;;5014439;28;20021;-84
2021/06/22 01:40:23;;;;;;;7.22;2.50;;;16.30;93.10;;;;;;5013813;28;20044;-83
2021/06/22 01:42:50;;;;;;;10.77;3.08;;;16.30;93.10;;;;;;5012734;28;20032;-84
2021/06/22 01:45:19;;;;;;;9.77;2.92;;;16.20;93.00;;;;;;5013017;28;20169;-83
2021/06/22 01:47:45;;;;;;;8.50;2.92;;;16.30;93.10;;;;;;5013035;28;20095;-84
2021/06/22 01:50:12;;;;;;;10.38;3.08;;;16.20;93.10;;;;;;5012598;28;20025;-84
2021/06/22 01:52:38;;;;;;;11.57;3.40;;;16.30;93.10;;;;;;5013966;28;20045;-84
2021/06/22 01:55:35;;;;;;;8.50;2.75;;;16.10;93.00;;;;;;5012909;28;20114;-84
2021/06/22 01:57:50;;;;;;;16.40;3.20;;;16.10;93.10;;;;;;5013765;28;20029;-84
2021/06/22 02:00:16;;;;;;;11.23;2.95;;;16.10;93.50;;;;;;5013114;28;20037;-84
2021/06/22 02:02:43;;;;;;;7.80;2.90;;;16.10;93.40;;;;;;5012673;28;20033;-84
2021/06/22 02:05:10;;;;;;;9.85;2.70;;;16.10;93.30;;;;;;5012405;28;20021;-83
2021/06/22 02:07:35;;;;;;;12.93;3.30;;;16.00;93.50;;;;;;5012313;28;20119;-84
2021/06/22 02:10:02;;;;;;;10.60;3.10;;;16.00;93.60;;;;;;5013069;28;20490;-84
2021/06/22 02:12:27;;;;;;;10.98;3.75;;;16.00;93.40;;;;;;5013112;28;20025;-84
2021/06/22 02:14:53;;;;;;;12.70;3.20;;;15.90;93.50;;;;;;5012532;28;20076;-84
2021/06/22 02:17:19;;;;;;;10.27;3.50;;;16.00;93.40;;;;;;5013076;28;20501;-83
2021/06/22 02:19:44;;;;;;;8.65;3.30;;;16.00;93.50;;;;;;5011303;28;20029;-83
2021/06/22 02:22:10;;;;;;;11.10;3.80;;;15.90;93.70;;;;;;5012194;28;20029;-83
2021/06/22 02:24:35;;;;;;;11.60;3.20;;;15.90;93.80;;;;;;5012113;28;20068;-84
2021/06/22 02:27:01;;;;;;;9.18;3.25;;;15.90;93.90;;;;;;5013339;28;20041;-84
2021/06/22 02:29:26;;;;;;;8.68;2.70;;;15.90;93.80;;;;;;5011426;28;20025;-84
2021/06/22 02:31:52;;;;;;;13.02;3.38;;;15.90;93.90;;;;;;5012590;28;20022;-83
2021/06/22 02:34:18;;;;;;;9.32;2.75;;;16.00;94.00;;;;;;5013424;28;20041;-84
2021/06/22 02:36:43;;;;;;;11.52;3.28;;;15.90;93.80;;;;;;5012021;28;20030;-84
2021/06/22 02:39:12;;;;;;;8.70;3.22;;;15.80;93.90;;;;;;5011240;28;20084;-83
2021/06/22 02:41:38;;;;;;;10.48;3.45;;;15.80;94.10;;;;;;5011683;28;20030;-84
2021/06/22 02:44:03;;;;;;;10.55;3.22;;;15.80;94.00;;;;;;5011706;28;20125;-83
2021/06/22 02:46:29;;;;;;;11.15;3.65;;;15.80;94.10;;;;;;5013097;28;20398;-83
2021/06/22 02:48:55;;;;;;;9.73;3.40;;;15.80;94.10;;;;;;5012053;28;20382;-84
2021/06/22 02:51:20;;;;;;;9.75;3.35;;;15.80;94.10;;;;;;5011677;28;20093;-84
2021/06/22 02:53:46;;;;;;;10.07;3.15;;;15.80;94.20;;;;;;5011745;28;20034;-84
2021/06/22 02:56:12;;;;;;;7.65;3.85;;;15.80;94.30;;;;;;5013119;28;20030;-83
2021/06/22 02:58:37;;;;;;;10.35;3.63;;;15.80;94.50;;;;;;5012979;28;20499;-84
2021/06/22 03:01:03;;;;;;;12.05;3.55;;;15.80;94.40;;;;;;5010840;28;20041;-83
2021/06/22 03:03:29;;;;;;;9.00;3.17;;;15.80;94.30;;;;;;5012632;28;20061;-84
2021/06/22 03:05:54;;;;;;;11.68;3.72;;;15.80;94.70;;;;;;5012593;28;20058;-84
2021/06/22 03:08:20;;;;;;;9.52;3.92;;;15.90;94.50;;;;;;5011458;28;20109;-84
2021/06/22 03:10:46;;;;;;;11.65;3.83;;;15.90;94.40;;;;;;5012306;28;20041;-84
2021/06/22 03:13:12;;;;;;;7.93;3.92;;;15.90;94.50;;;;;;5012599;28;20156;-83
2021/06/22 03:15:38;;;;;;;10.23;3.72;;;15.80;94.50;;;;;;5011343;28;20064;-83
2021/06/22 03:18:03;;;;;;;9.20;3.53;;;15.80;94.50;;;;;;5012729;28;20026;-83
2021/06/22 03:20:29;;;;;;;8.23;3.47;;;15.80;94.50;;;;;;5012227;28;20022;-83
2021/06/22 03:22:55;;;;;;;9.75;3.88;;;15.80;94.60;;;;;;5011425;28;20022;-84
2021/06/22 03:25:20;;;;;;;12.00;4.43;;;15.80;94.70;;;;;;5012324;28;20022;-85
2021/06/22 03:27:46;;;;;;;8.38;3.88;;;15.80;94.80;;;;;;5012471;28;20033;-83
2021/06/22 03:30:13;;;;;;;10.20;3.83;;;15.80;94.80;;;;;;5010476;28;20022;-83
2021/06/22 03:32:39;;;;;;;9.88;3.80;;;15.80;94.90;;;;;;5012220;28;20033;-84
2021/06/22 03:35:08;;;;;;;11.30;4.03;;;15.80;94.70;;;;;;5012775;28;20097;-84
2021/06/22 03:37:34;;;;;;;12.63;4.60;;;15.70;94.80;;;;;;5011013;28;20030;-84
2021/06/22 03:40:05;;;;;;;7.88;4.03;;;15.80;94.90;;;;;;5010423;28;20033;-83
2021/06/22 03:42:31;;;;;;;9.85;3.50;;;15.80;95.00;;;;;;5011234;28;20026;-84
2021/06/22 03:44:56;;;;;;;9.07;3.92;;;15.80;95.10;;;;;;5014731;28;20080;-84
2021/06/22 03:47:22;;;;;;;11.13;3.65;;;15.80;95.00;;;;;;5014596;28;20552;-84
2021/06/22 03:49:47;;;;;;;7.50;3.63;;;15.80;95.40;;;;;;5015295;28;20018;-84
2021/06/22 03:52:13;;;;;;;8.75;3.80;;;15.80;95.20;;;;;;5014663;28;20034;-85
2021/06/22 03:54:39;;;;;;;12.57;4.47;;;15.70;95.30;;;;;;5014701;28;20386;-84
2021/06/22 03:57:04;;;;;;;13.85;4.13;;;15.70;95.30;;;;;;5015907;28;20029;-84
2021/06/22 03:59:30;;;;;;;12.98;4.30;;;15.60;95.50;;;;;;5013807;28;20029;-83
2021/06/22 04:01:56;;;;;;;13.95;4.15;;;15.70;95.50;;;;;;5015853;28;20026;-84
2021/06/22 04:04:21;;;;;;;10.00;4.30;;;15.70;95.60;;;;;;5014428;28;20537;-84
2021/06/22 04:06:47;;;;;;;12.18;4.60;;;15.70;95.50;;;;;;5014425;28;20036;-84
2021/06/22 04:09:12;;;;;;;11.30;4.53;;;15.70;95.50;;;;;;5013849;28;20100;-84
2021/06/22 04:11:38;;;;;;;13.60;4.88;;;15.70;95.60;;;;;;5014246;28;20049;-85
2021/06/22 04:14:04;;;;;;;12.38;4.53;;;15.70;95.50;;;;;;5014268;28;20282;-84
2021/06/22 04:16:29;;;;;;;11.32;4.53;;;15.70;95.70;;;;;;5015490;28;20029;-84
2021/06/22 04:18:55;;;;;;;10.82;4.55;;;15.70;95.80;;;;;;5013445;28;20434;-84
2021/06/22 04:21:21;;;;;;;13.27;4.63;;;15.60;95.60;;;;;;5014171;28;20053;-84
2021/06/22 04:23:46;;;;;;;10.05;4.60;;;15.70;95.90;;;;;;5014296;28;20080;-85
2021/06/22 04:26:12;;;;;;;12.68;4.40;;;15.70;96.20;;;;;;5014082;28;20490;-85
2021/06/22 04:28:38;;;;;;;11.00;4.90;;;15.70;96.00;;;;;;5014211;28;20030;-84
2021/06/22 04:31:04;;;;;;;11.80;4.65;;;15.70;95.90;;;;;;5014896;28;20053;-84
2021/06/22 04:33:29;;;;;;;11.77;4.45;;;15.60;95.80;;;;;;5015309;28;20053;-85
2021/06/22 04:35:55;;;;;;;15.45;5.10;;;15.60;96.10;;;;;;5014298;28;20052;-84
2021/06/22 04:38:21;;;;;;;9.65;4.57;;;15.60;96.00;;;;;;5015109;28;20057;-85
2021/06/22 04:40:46;;;;;;;11.30;4.60;;;15.50;96.10;;;;;;5014395;28;20080;-85
2021/06/22 04:43:12;;;;;;;14.70;5.30;;;15.60;96.20;;;;;;5014965;28;20388;-84
2021/06/22 04:45:38;;;;;;;12.05;4.85;;;15.60;96.10;;;;;;5014069;28;20491;-85
2021/06/22 04:48:04;;;;;;;9.88;4.80;;;15.50;96.10;;;;;;5015293;28;20539;-84
2021/06/22 04:50:30;;;;;;;12.02;5.40;;;15.50;96.20;;;;;;5014577;28;20026;-84
2021/06/22 04:52:56;;;;;;;13.18;5.20;;;15.50;96.20;;;;;;5013784;28;20029;-83
2021/06/22 04:55:25;;;;;;;11.43;4.70;;;15.50;96.40;;;;;;5029972;28;20445;-85
2021/06/22 04:57:52;;;;;;;8.80;5.18;;;15.60;96.30;;;;;;5014859;28;20026;-84
2021/06/22 05:00:18;;;;;;;17.00;5.55;;;15.60;96.20;;;;;;5042533;22;20037;-86
2021/06/22 05:02:45;;;;;;;9.88;5.00;;;15.60;96.30;;;;;;5033475;28;20031;-87
2021/06/22 05:05:12;;;;;;;7.78;3.88;;;15.70;96.00;;;;;;5034513;28;20100;-87
2021/06/22 05:07:56;;;;;;;9.07;4.72;;;15.70;96.10;;;;;;5034692;28;20481;-88
2021/06/22 05:10:31;;;;;;;9.32;4.40;;;15.70;96.10;;;;;;5033465;28;20026;-88
2021/06/22 05:13:03;;;;;;;10.85;4.38;;;15.80;96.00;;;;;;5032716;28;20104;-87
2021/06/22 05:15:29;;;;;;;8.05;4.45;;;15.90;95.80;;;;;;5033135;28;20136;-87
2021/06/22 05:17:55;;;;;;;11.15;4.60;;;15.80;95.80;;;;;;5050791;28;20112;-88
2021/06/22 05:20:20;;;;;;;9.90;4.55;;;15.90;95.90;;;;;;5033886;28;20102;-87
2021/06/22 05:22:46;;;;;;;14.55;4.97;;;15.90;95.60;;;;;;5034202;28;20069;-86
2021/06/22 05:25:12;;;;;;;13.13;4.93;;;15.90;96.00;;;;;;5033516;28;20025;-88
2021/06/22 05:27:38;;;;;;;12.65;4.90;;;15.90;95.40;;;;;;5033938;28;20037;-87
2021/06/22 05:30:05;;;;;;;10.93;3.90;;;15.90;95.20;;;;;;5033472;28;20493;-87
2021/06/22 05:32:31;;;;;;;13.63;5.90;;;16.00;95.40;;;;;;5032811;28;20022;-87
2021/06/22 05:34:56;;;;;;;11.27;4.78;;;15.90;95.10;;;;;;5032448;28;20026;-86
2021/06/22 05:37:23;;;;;;;13.50;3.95;;;16.00;95.20;;;;;;5032424;28;20057;-88
2021/06/22 05:39:49;;;;;;;11.55;4.78;;;16.00;95.20;;;;;;5031872;28;20029;-87
2021/06/22 05:42:16;;;;;;;7.68;3.75;;;16.10;95.00;;;;;;5033640;28;20083;-87
2021/06/22 05:44:42;;;;;;;12.88;3.78;;;16.10;94.70;;;;;;5032472;28;20021;-88
2021/06/22 05:47:08;;;;;;;9.55;4.00;;;16.10;94.80;;;;;;5032225;28;20386;-87
2021/06/22 05:49:34;;;;;;;6.65;3.03;;;16.10;94.70;;;;;;5033228;28;20021;-87
2021/06/22 05:52:01;;;;;;;10.30;3.53;;;16.20;94.80;;;;;;5033246;28;20029;-88
2021/06/22 05:54:27;;;;;;;7.25;3.58;;;16.20;94.80;;;;;;5048749;28;20026;-87
2021/06/22 05:56:52;;;;;;;8.65;3.40;;;16.20;94.60;;;;;;5033398;28;20100;-87
2021/06/22 05:59:18;;;;;;;10.80;3.80;;;16.30;94.60;;;;;;5031531;28;20036;-88
2021/06/22 06:01:44;;;;;;;11.48;3.97;;;16.30;94.70;;;;;;5032957;28;20038;-87
2021/06/22 06:04:09;;;;;;;10.15;3.60;;;16.30;94.70;;;;;;5031946;28;20053;-87
2021/06/22 06:06:35;;;;;;;12.35;4.00;;;16.30;94.40;;;;;;5032220;28;20045;-86
2021/06/22 06:09:00;;;;;;;9.05;3.70;;;16.30;94.30;;;;;;5031226;28;20071;-88
2021/06/22 06:11:26;;;;;;;12.45;3.38;;;16.40;94.20;;;;;;5031683;28;20037;-87
2021/06/22 06:13:52;;;;;;;9.63;3.83;;;16.40;94.10;;;;;;5033132;28;20030;-87
2021/06/22 06:16:17;;;;;;;16.15;4.13;;;16.40;93.70;;;;;;5032020;28;20033;-86
2021/06/22 06:18:43;;;;;;;10.98;3.88;;;16.30;94.00;;;;;;5031894;28;20437;-87
2021/06/22 06:21:08;;;;;;;9.27;3.58;;;16.40;94.20;;;;;;5032076;28;20029;-87
2021/06/22 06:23:41;;;;;;;9.82;3.53;;;16.40;94.30;;;;;;5031573;28;20035;-87
2021/06/22 06:26:13;;;;;;;9.45;3.42;;;16.40;94.10;;;;;;5031434;28;20072;-90
2021/06/22 06:28:46;;;;;;;15.32;4.07;;;16.40;93.90;;;;;;5032846;28;20105;-89
2021/06/22 06:31:12;;;;;;;9.13;3.13;;;16.40;93.80;;;;;;5030846;28;20048;-87
2021/06/22 06:33:37;;;;;;;12.18;3.78;;;16.40;94.00;;;;;;5031342;28;20033;-87
2021/06/22 06:36:03;;;;;;;9.20;3.40;;;16.40;94.10;;;;;;5031414;28;20029;-87
2021/06/22 06:38:29;;;;;;;9.27;3.17;;;16.50;94.20;;;;;;5031253;28;20048;-90
2021/06/22 06:40:54;;;;;;;10.93;3.88;;;16.40;94.20;;;;;;5030673;28;20075;-89
2021/06/22 06:43:20;;;;;;;11.75;3.63;;;16.50;93.90;;;;;;5031265;28;20057;-88
2021/06/22 06:45:46;;;;;;;9.15;3.40;;;16.50;94.00;;;;;;5031292;28;20044;-90
2021/06/22 06:48:12;;;;;;;11.50;3.78;;;16.50;93.80;;;;;;5032334;28;20029;-89
2021/06/22 06:50:38;;;;;;;9.68;3.45;;;16.60;93.70;;;;;;5031758;28;20152;-88
2021/06/22 06:53:04;;;;;;;8.48;3.65;;;16.60;93.50;;;;;;5031016;28;20116;-90
2021/06/22 06:55:35;;;;;;;8.45;3.53;;;16.70;93.50;;;;;;5032221;28;20021;-87
2021/06/22 06:58:05;;;;;;;9.00;3.50;;;16.80;93.50;;;;;;5031011;28;20029;-87
2021/06/22 07:00:33;;;;;;;8.70;3.15;;;16.70;93.40;;;;;;5030631;28;20037;-86
2021/06/22 07:02:59;;;;;;;8.30;3.58;;;16.80;93.30;;;;;;5032436;28;20108;-84
2021/06/22 07:05:26;;;;;;;10.05;3.30;;;16.80;93.10;;;;;;5031011;28;20026;-85
2021/06/22 07:07:51;;;;;;;11.55;4.00;;;16.80;93.00;;;;;;5032153;28;20389;-84
2021/06/22 07:10:17;;;;;;;10.80;3.65;;;16.80;93.30;;;;;;5030629;28;20108;-84
2021/06/22 07:12:43;;;;;;;12.77;3.53;;;16.90;93.10;;;;;;5032085;28;20022;-84
2021/06/22 07:15:10;;;;;;;10.05;3.72;;;16.90;92.90;;;;;;5032050;28;20044;-84
2021/06/22 07:17:36;;;;;;;8.07;3.75;;;16.80;92.90;;;;;;5030821;28;20469;-84
2021/06/22 07:20:03;;;;;;;9.52;3.15;;;16.80;92.90;;;;;;5031805;28;20060;-85
2021/06/22 07:22:29;;;;;;;11.38;3.60;;;16.90;92.70;;;;;;5030814;28;20025;-84
2021/06/22 07:24:54;;;;;;;9.70;3.53;;;16.90;92.70;;;;;;5032448;28;20030;-84
2021/06/22 07:27:20;;;;;;;12.45;3.53;;;16.90;92.80;;;;;;5030748;28;20030;-84
2021/06/22 07:29:46;;;;;;;8.27;3.20;;;16.90;93.00;;;;;;5030191;28;20102;-84
2021/06/22 07:32:11;;;;;;;7.82;3.40;;;16.90;93.20;;;;;;5031802;28;20072;-84
2021/06/22 07:34:37;;;;;;;10.73;3.53;;;16.90;93.20;;;;;;5030620;28;20522;-87
2021/06/22 07:37:03;;;;;;;8.10;3.75;;;16.90;93.00;;;;;;5047110;28;20056;-87
2021/06/22 07:39:29;;;;;;;8.50;3.45;;;17.00;92.60;;;;;;5030077;28;20021;-87
2021/06/22 07:41:55;;;;;;;11.77;4.95;;;16.90;92.50;;;;;;5030335;28;20393;-87
2021/06/22 07:44:20;;;;;;;10.13;4.03;;;16.90;92.70;;;;;;5030423;28;20144;-87
2021/06/22 07:46:46;;;;;;;7.28;3.40;;;16.90;92.80;;;;;;5030315;28;20033;-85
2021/06/22 07:49:12;;;;;;;11.20;3.55;;;17.00;92.90;;;;;;5031329;28;20057;-85
2021/06/22 07:51:38;;;;;;;8.10;3.80;;;17.00;92.80;;;;;;5031531;28;20034;-85
2021/06/22 07:54:04;;;;;;;8.60;3.60;;;17.10;93.10;;;;;;5031652;28;20026;-84
2021/06/22 07:56:29;;;;;;;7.68;2.95;;;17.10;92.70;;;;;;5030358;28;20026;-83
2021/06/22 07:58:55;;;;;;;7.25;2.92;;;17.20;92.50;;;;;;5030277;28;20453;-84
2021/06/22 08:01:21;;;;;;;8.35;2.83;;;17.20;92.00;;;;;;5030219;28;20087;-85
2021/06/22 08:03:46;;;;;;;7.72;3.15;;;17.30;91.80;;;;;;5030338;28;20486;-85
2021/06/22 08:06:12;;;;;;;7.35;2.70;;;17.30;91.70;;;;;;5031454;28;20057;-85
2021/06/22 08:08:38;;;;;;;8.80;2.70;;;17.20;91.60;;;;;;5031677;28;20505;-87
2021/06/22 08:11:04;;;;;;;7.57;3.00;;;17.30;92.10;;;;;;5030046;28;20022;-84
2021/06/22 08:13:30;;;;;;;8.00;2.92;;;17.30;91.70;;;;;;5030187;28;20454;-84
2021/06/22 08:15:57;;;;;;;11.43;3.03;;;17.40;91.60;;;;;;5030476;28;20128;-87
2021/06/22 08:18:24;;;;;;;8.30;2.60;;;17.40;91.00;;;;;;5030214;28;20157;-85
2021/06/22 08:20:50;;;;;;;7.53;2.63;;;17.40;91.10;;;;;;5029796;28;20075;-84
2021/06/22 08:23:17;;;;;;;6.50;2.58;;;17.40;91.00;;;;;;5030380;28;20478;-84
2021/06/22 08:25:43;;;;;;;10.88;2.83;;;17.50;91.20;;;;;;5030192;28;20080;-87
2021/06/22 08:28:09;;;;;;;8.73;2.45;;;17.50;91.00;;;;;;5031372;28;20041;-85
2021/06/22 08:30:35;;;;;;;11.20;3.85;;;17.50;91.10;;;;;;5031622;28;20466;-85
2021/06/22 08:33:02;;;;;;;7.43;3.35;;;17.60;90.90;;;;;;5034796;28;20029;-86
2021/06/22 08:35:31;;;;;;;10.05;2.92;;;17.70;90.70;;;;;;5033511;28;20108;-84
2021/06/22 08:37:57;;;;;;;7.05;2.70;;;17.70;90.30;;;;;;5050101;28;20040;-85
2021/06/22 08:40:23;;;;;;;7.80;2.55;;;17.70;90.60;;;;;;5033259;28;20029;-85
2021/06/22 08:42:49;;;;;;;6.15;2.65;;;17.70;90.60;;;;;;5033393;28;20026;-85
2021/06/22 08:45:16;;;;;;;5.72;2.53;;;17.70;91.00;;;;;;5033459;28;20034;-85
2021/06/22 08:47:42;;;;;;;5.10;2.33;;;17.70;90.60;;;;;;5033722;28;20489;-85
2021/06/22 08:50:10;;;;;;;7.53;2.67;;;17.70;90.50;;;;;;5032985;28;20071;-85
2021/06/22 08:52:36;;;;;;;8.50;2.50;;;17.70;90.60;;;;;;5033369;28;20049;-85
2021/06/22 08:55:05;;;;;;;5.35;2.50;;;17.70;90.70;;;;;;5033318;28;20080;-85
2021/06/22 08:57:30;;;;;;;;;;;17.70;90.80;;;;;;5033774;28;20026;-84
2021/06/22 08:59:56;;;;;;;8.02;3.22;;;17.70;90.80;;;;;;5032809;28;19967;-85
2021/06/22 09:02:26;;;;;;;9.30;3.47;;;17.60;90.90;;;;;;5033036;28;20032;-85
2021/06/22 09:04:53;;;;;;;6.65;3.33;;;17.60;91.20;;;;;;5033025;28;20497;-85
2021/06/22 09:07:44;;;;;;;10.13;3.58;;;17.60;91.40;;;;;;5034289;28;20024;-84
2021/06/22 09:10:34;;;;;;;11.52;3.50;;;17.60;91.30;;;;;;5032613;28;20515;-84
2021/06/22 09:13:12;;;;;;;7.63;3.05;;;17.60;91.30;;;;;;5034259;28;20068;-87
2021/06/22 09:15:41;;;;;;;10.70;3.20;;;17.60;91.50;;;;;;5034249;28;20557;-85
2021/06/22 09:18:23;;;;;;;9.60;3.60;;;17.60;91.40;;;;;;5032898;28;20037;-84
2021/06/22 09:20:49;;;;;;;8.82;3.15;;;17.60;91.40;;;;;;5032820;28;20508;-84
2021/06/22 09:23:19;;;;;;;9.57;3.30;;;17.50;91.40;;;;;;5032837;28;20393;-84
2021/06/22 09:25:47;;;;;;;7.75;3.22;;;17.60;92.00;;;;;;5032697;28;20482;-84
2021/06/22 09:28:17;;;;;;;11.43;3.20;;;17.60;91.60;;;;;;5032673;28;20029;-84
2021/06/22 09:30:45;;;;;;;9.25;3.00;;;17.60;91.30;;;;;;5032273;28;20064;-85
2021/06/22 09:33:14;;;;;;;7.72;3.08;;;17.70;91.30;;;;;;5049171;28;20564;-85
2021/06/22 09:35:40;;;;;;;8.93;3.55;;;17.70;90.80;;;;;;5032418;28;20104;-87
2021/06/22 09:38:05;;;;;;;14.43;3.70;;;17.70;90.60;;;;;;5032412;28;20033;-84
2021/06/22 09:40:31;;;;;;;12.98;3.70;;;17.70;90.50;;;;;;5031900;28;20033;-85
2021/06/22 09:42:58;;;;;;;11.80;4.03;;;17.70;90.70;;;;;;5032322;28;20033;-84
2021/06/22 09:45:26;;;;;;;10.57;3.83;;;17.70;91.00;;;;;;5032486;28;20025;-84
2021/06/22 09:47:53;;;;;;;11.75;3.78;;;17.70;91.20;;;;;;5048987;28;20220;-84
2021/06/22 09:50:42;;;;;;;12.13;4.43;;;17.80;91.00;;;;;;5033198;28;20033;-85
2021/06/22 09:53:26;;;;;;;9.07;4.28;;;17.90;91.70;;;;;;5033488;28;20025;-85
2021/06/22 09:55:52;;;;;;;7.60;4.30;;;18.00;90.90;;;;;;5032173;28;20026;-84
2021/06/22 09:58:35;;;;;;;13.23;5.20;;;18.10;91.00;;;;;;5032129;28;20026;-85
2021/06/22 10:01:02;;;;;;;12.10;5.63;;;18.10;90.40;;;;;;5031332;28;20067;-85
2021/06/22 10:03:38;;;;;;;8.90;4.82;;;18.20;90.10;;;;;;5031942;28;20026;-85
2021/06/22 10:06:09;;;;;;;8.68;3.78;;;18.30;89.50;;;;;;5031809;28;20037;-85
2021/06/22 10:08:56;;;;;;;9.35;4.75;;;18.30;89.90;;;;;;5031934;28;20109;-84
2021/06/22 10:11:39;;;;;;;8.98;4.65;;;18.30;88.60;;;;;;5032089;28;20018;-86
2021/06/22 10:14:21;;;;;;;7.97;4.45;;;18.30;88.40;;;;;;5031930;28;20105;-84
2021/06/22 10:16:48;;;;;;;9.90;4.30;;;18.10;88.20;;;;;;5031935;28;20494;-85
2021/06/22 10:19:14;;;;;;;8.93;3.90;;;18.10;89.60;;;;;;5032818;28;20041;-85
2021/06/22 10:21:40;;;;;;;10.15;3.70;;;18.10;89.50;;;;;;5031698;28;20083;-85
2021/06/22 10:24:06;;;;;;;10.35;3.63;;;18.00;90.20;;;;;;5031645;28;20430;-84
2021/06/22 10:26:32;;;;;;;9.48;3.65;;;18.10;90.10;;;;;;5031409;28;20028;-85
2021/06/22 10:28:59;;;;;;;7.53;3.85;;;18.10;89.90;;;;;;5047785;28;20021;-85
2021/06/22 10:31:26;;;;;;;10.00;3.95;;;18.10;89.70;;;;;;5031508;28;20363;-84
2021/06/22 10:33:53;;;;;;;7.40;3.33;;;18.20;88.80;;;;;;5032880;28;20482;-84
2021/06/22 10:36:25;;;;;;;9.05;3.50;;;18.20;89.40;;;;;;5031479;28;20101;-85
2021/06/22 10:38:55;;;;;;;10.15;4.10;;;18.20;90.20;;;;;;5031372;28;20116;-85
2021/06/22 10:41:22;;;;;;;8.38;3.47;;;18.30;89.60;;;;;;5031243;28;20107;-85
2021/06/22 10:43:48;;;;;;;5.80;3.17;;;18.30;89.60;;;;;;5031326;28;20389;-87
2021/06/22 10:46:16;;;;;;;8.63;3.55;;;18.30;89.50;;;;;;5031508;28;20021;-84
2021/06/22 10:48:51;;;;;;;11.35;3.95;;;18.20;88.70;;;;;;5031346;28;20025;-85
2021/06/22 10:51:35;;;;;;;5.90;3.58;;;18.20;89.50;;;;;;5031040;28;20049;-85
2021/06/22 10:54:01;;;;;;;12.23;4.10;;;18.20;89.50;;;;;;5031028;28;20114;-85
2021/06/22 10:56:28;;;;;;;12.23;4.32;;;18.20;89.40;;;;;;5032266;28;20509;-85
2021/06/22 10:59:14;;;;;;;7.40;3.30;;;18.30;87.80;;;;;;5030828;28;20029;-85
2021/06/22 11:01:52;;;;;;;9.90;4.10;;;18.40;88.90;;;;;;5051926;22;20091;-87
2021/06/22 11:04:18;;;;;;;8.23;3.17;;;18.40;87.50;;;;;;5011646;28;20109;-87
2021/06/22 11:07:06;;;;;;;8.00;2.97;;;18.40;88.60;;;;;;5012585;28;20026;-87
2021/06/22 11:09:33;;;;;;;8.77;4.03;;;18.40;89.30;;;;;;5002965;28;20420;-87
2021/06/22 11:12:21;;;;;;;7.90;3.28;;;18.40;89.40;;;;;;5011296;28;20033;-87
2021/06/22 11:15:00;;;;;;;9.02;4.10;;;18.40;89.70;;;;;;5011301;28;20021;-87
2021/06/22 11:17:41;;;;;;;;;;;18.30;88.40;;;;;;5012972;28;20033;-87
2021/06/22 11:20:09;;;;;;;13.50;4.20;;;18.30;88.80;;;;;;5010936;28;20284;-88
2021/06/22 11:23:07;;;;;;;10.65;4.03;;;18.30;89.70;;;;;;5011180;28;20544;-87
2021/06/22 11:26:01;;;;;;;10.60;4.97;;;18.40;88.70;;;;;;5011549;28;20041;-88
2021/06/22 11:28:29;;;;;;;9.43;4.00;;;18.40;88.40;;;;;;5012372;28;20029;-87
2021/06/22 11:31:01;;;;;;;8.73;3.50;;;18.40;88.30;;;;;;5010720;28;20049;-87
2021/06/22 11:33:30;;;;;;;8.70;3.13;;;18.40;88.70;;;;;;5011017;28;20037;-88
2021/06/22 11:36:15;;;;;;;7.50;2.85;;;18.40;88.40;;;;;;5010928;28;20030;-87
2021/06/22 11:38:41;;;;;;;8.68;3.30;;;18.50;89.00;;;;;;5010822;28;20026;-87
2021/06/22 11:41:15;;;;;;;5.70;2.80;;;18.50;88.80;;;;;;5011868;28;20022;-87
2021/06/22 11:44:09;;;;;;;8.10;3.08;;;18.60;89.20;;;;;;5010983;28;20030;-87
2021/06/22 11:46:36;;;;;;;10.88;3.20;;;18.60;88.80;;;;;;5011883;28;20029;-87
2021/06/22 11:49:03;;;;;;;12.82;4.20;;;18.70;89.00;;;;;;5012069;28;20026;-87
2021/06/22 11:51:47;;;;;;;7.25;3.75;;;18.70;88.60;;;;;;5011344;28;20032;-88
2021/06/22 11:54:20;;;;;;;11.63;4.60;;;18.70;87.70;;;;;;5014174;28;20026;-87
2021/06/22 11:56:49;;;;;;;7.63;3.35;;;18.70;87.70;;;;;;5013805;28;20479;-87
2021/06/22 11:59:15;;;;;;;7.63;3.20;;;18.70;88.20;;;;;;5011826;28;20034;-87
2021/06/22 12:01:47;;;;;;;7.65;3.17;;;18.70;88.20;;;;;;5030501;28;20038;-88
2021/06/22 12:04:13;;;;;;;7.63;3.20;;;18.70;87.30;;;;;;5032219;28;20433;-88
2021/06/22 12:06:40;;;;;;;8.35;3.75;;;18.60;87.90;;;;;;5022263;28;20026;-87
2021/06/22 12:09:20;;;;;;;12.45;4.15;;;18.60;87.70;;;;;;5020315;28;20033;-88
2021/06/22 12:11:47;;;;;;;9.02;3.00;;;18.60;88.00;;;;;;5018930;28;20125;-88
2021/06/22 12:14:16;;;;;;;5.85;2.90;;;18.60;89.30;;;;;;5036137;28;20025;-88
2021/06/22 12:16:47;;;;;;;8.48;3.08;;;18.50;89.10;;;;;;5019615;28;20033;-87
2021/06/22 12:19:20;;;;;;;9.02;2.97;;;18.50;89.20;;;;;;5018445;28;20213;-88
2021/06/22 12:21:52;;;;;;;9.02;2.92;;;18.50;89.40;;;;;;5018492;28;20030;-88
2021/06/22 12:24:21;;;;;;;7.32;3.38;;;18.60;89.70;;;;;;5018576;28;20034;-88
2021/06/22 12:26:51;;;;;;;6.03;3.65;;;18.60;89.60;;;;;;5017881;28;20061;-87
2021/06/22 12:29:21;;;;;;;8.20;3.20;;;18.70;88.70;;;;;;5035828;28;20383;-88
2021/06/22 12:32:07;;;;;;;7.80;3.83;;;18.70;88.60;;;;;;5019154;28;20052;-87
2021/06/22 12:34:36;;;;;;;6.72;3.50;;;18.80;87.30;;;;;;5020874;28;20094;-88
2021/06/22 12:37:03;;;;;;;;;;;18.80;87.60;;;;;;5036099;28;20034;-88
2021/06/22 12:39:48;;;;;;;6.85;3.40;;;18.80;87.20;;;;;;5017896;28;19905;-86
2021/06/22 12:42:20;;;;;;;13.75;4.47;;;18.80;87.70;;;;;;5013742;28;20069;-87
2021/06/22 12:44:46;;;;;;;8.65;4.78;;;18.90;88.20;;;;;;5013699;28;20052;-87
2021/06/22 12:47:12;;;;;;;9.52;4.63;;;18.90;87.80;;;;;;5013583;28;20121;-87